< Cyclone 198418 1984 Season Cyclone 198421 >
Cyclone 198419 (DARYL)
General InformationTrack Information on Google MapsList of All Images || ResourceGoogle EarthGE AnimationAtom FeedGeoJSON
Detalied Best Track (Time Zone = UTC)
Year Month Day Hour Lat. Long. Pressure (hPa) Wind (kt) Class Image Chart
1984 3 6 12 -8.5 101.4 1004 0 0 Image --
1984 3 6 18 -8.6 101.6 1003 0 0 Image --
1984 3 7 00 -8.7 102.0 1002 0 0 Image --
1984 3 7 06 -8.8 102.3 1001 0 0 Image --
1984 3 7 12 -9.0 102.4 1001 0 0 Image --
1984 3 7 18 -9.3 102.5 1001 0 0 Image --
1984 3 8 00 -9.5 102.7 1000 0 0 Image --
1984 3 8 06 -9.7 102.8 1000 0 0 Image --
1984 3 8 12 -9.9 103.0 1000 0 0 Image --
1984 3 8 18 -10.0 103.2 1000 0 0 Image --
1984 3 9 00 -10.2 103.3 999 0 0 Image --
1984 3 9 06 -10.7 103.3 998 0 0 Image --
1984 3 9 12 -11.2 103.3 998 0 0 Image --
1984 3 9 18 -11.5 103.0 998 0 0 Image --
1984 3 10 00 -11.7 102.6 997 0 0 Image --
1984 3 10 06 -12.1 101.7 996 0 0 Image --
1984 3 10 12 -12.3 100.7 993 0 0 Image --
1984 3 10 18 -12.4 99.8 990 0 0 Image --
1984 3 11 00 -12.4 98.8 988 0 0 Image --
1984 3 11 06 -12.5 98.0 986 0 0 Image --
1984 3 11 12 -12.8 97.0 984 0 0 Image --
1984 3 11 18 -13.0 96.0 981 0 0 Image --
1984 3 12 00 -13.3 94.7 979 0 0 Image --
1984 3 12 06 -13.5 93.3 977 0 0 Image --
1984 3 12 12 -13.8 92.1 975 0 0 Image --
1984 3 12 18 -14.4 91.0 973 0 0 Image --
1984 3 13 00 -14.8 89.8 970 0 0 Image --
1984 3 13 06 -15.3 88.6 966 0 0 Image --
1984 3 13 12 -15.8 87.6 960 0 0 Image --
1984 3 13 18 -16.3 86.9 958 0 0 Image --
1984 3 14 00 -17.0 86.0 956 0 0 Image --
1984 3 14 06 -17.7 85.2 955 0 0 Image --
1984 3 14 12 -18.2 84.4 956 0 0 Image --
1984 3 14 18 -18.5 83.9 958 0 0 Image --
1984 3 15 00 -19.1 83.3 964 0 0 Image --
1984 3 15 06 -19.6 82.6 972 0 0 Image --
1984 3 15 12 -20.0 82.0 976 0 0 Image --
1984 3 15 18 -20.7 81.2 981 0 0 Image --
1984 3 16 00 -21.4 80.4 988 0 0 Image --
1984 3 16 06 -22.0 79.5 992 0 0 Image --
1984 3 16 12 -22.9 78.5 996 0 0 Image --
1984 3 16 18 -23.5 77.9 994 0 0 Image --
1984 3 17 00 -24.3 77.3 996 0 0 Image --
1984 3 17 06 -25.2 76.9 997 0 0 Image --
1984 3 17 12 -26.0 77.1 998 0 0 Image --
1984 3 17 18 -26.5 77.7 999 0 0 Image --
1984 3 18 00 -26.9 78.3 1000 0 0 Image --
1984 3 18 06 -27.2 79.1 1001 0 0 Image --
1984 3 18 12 -27.3 79.8 1002 0 0 Image --
1984 3 18 18 -27.4 80.6 1003 0 0 Image --
1984 3 19 00 -27.5 81.5 1004 0 0 Image --
1984 3 19 06 -27.6 82.7 1004 0 0 Image --
1984 3 19 12 -27.9 84.4 1005 0 0 Image --
1984 3 19 18 -28.0 86.0 1005 0 0 Image --
1984 3 20 00 -28.1 87.4 1006 0 0 Image --
1984 3 20 06 -28.1 88.9 1006 0 0 Image --
< Cyclone 198418 1984 Season Cyclone 198421 >

Help